createdAt,value
2023-04-29T00:04:05.319Z,99805.25
2023-04-29T00:09:08.646Z,99814.88
2023-04-29T00:14:11.426Z,99816.19
2023-04-29T00:19:14.202Z,99810.41
2023-04-29T00:24:16.881Z,99826.97
2023-04-29T00:29:19.884Z,99846.78
2023-04-29T00:34:23.032Z,99822.59
2023-04-29T00:39:26.090Z,99832.31
2023-04-29T00:44:28.908Z,99829.38
2023-04-29T00:49:31.995Z,99818.97
2023-04-29T00:54:35.881Z,99810.28
2023-04-29T00:59:39.247Z,99824.78
2023-04-29T01:04:42.041Z,99825.19
2023-04-29T01:09:59.391Z,99828.00
2023-04-29T01:15:17.471Z,99826.50
2023-04-29T01:20:21.694Z,99819.34
2023-04-29T01:25:24.669Z,99831.06
2023-04-29T01:30:40.718Z,99833.03
2023-04-29T01:35:44.009Z,99834.06
2023-04-29T01:40:50.481Z,99834.19
2023-04-29T01:45:59.643Z,99822.44
2023-04-29T01:51:03.135Z,99810.13
2023-04-29T01:56:07.360Z,99819.00
2023-04-29T02:01:25.119Z,99820.13
2023-04-29T02:06:28.682Z,99825.38
2023-04-29T02:11:35.778Z,99820.78
2023-04-29T02:16:38.739Z,99809.91
2023-04-29T02:21:43.465Z,99817.44
2023-04-29T02:26:46.374Z,99823.38
2023-04-29T02:31:49.214Z,99812.59
2023-04-29T02:36:52.474Z,99814.69
2023-04-29T02:41:57.495Z,99815.88
2023-04-29T02:47:00.295Z,99804.16
2023-04-29T02:52:03.178Z,99818.97
2023-04-29T02:57:06.263Z,99804.78
2023-04-29T03:02:09.414Z,99800.50
2023-04-29T03:07:12.760Z,99804.31
2023-04-29T03:12:17.257Z,99811.38
2023-04-29T03:17:22.169Z,99796.13
2023-04-29T03:22:25.226Z,99799.91
2023-04-29T03:27:28.720Z,99791.91
2023-04-29T03:32:31.977Z,99801.34
2023-04-29T03:37:36.005Z,99783.03
2023-04-29T03:42:52.181Z,99787.88
2023-04-29T03:47:56.550Z,99788.16
2023-04-29T03:52:59.682Z,99792.41
2023-04-29T03:58:03.038Z,99787.06
2023-04-29T04:03:06.158Z,99793.06
2023-04-29T04:08:11.697Z,99785.59
2023-04-29T04:13:30.561Z,99784.31
2023-04-29T04:18:33.975Z,99785.22
2023-04-29T04:23:38.412Z,99784.78
2023-04-29T04:28:41.807Z,99802.03
2023-04-29T04:33:49.403Z,99790.50
2023-04-29T04:38:52.727Z,99808.38
2023-04-29T04:43:55.583Z,99787.13
2023-04-29T04:49:31.703Z,99804.03
2023-04-29T04:54:35.898Z,99810.97
2023-04-29T04:59:54.018Z,99797.78
2023-04-29T05:04:57.368Z,99788.53
2023-04-29T05:10:08.937Z,99782.19
2023-04-29T05:15:20.077Z,99786.69
2023-04-29T05:20:26.650Z,99795.50
2023-04-29T05:25:31.625Z,99770.56
2023-04-29T05:30:35.294Z,99758.31
2023-04-29T05:35:38.387Z,99781.03
2023-04-29T05:40:41.568Z,99776.69
2023-04-29T05:46:04.158Z,99780.47
2023-04-29T05:51:07.197Z,99786.16
2023-04-29T05:56:11.441Z,99765.22
2023-04-29T06:01:15.634Z,99769.53
2023-04-29T06:06:19.150Z,99769.66
2023-04-29T06:11:57.316Z,99765.19
2023-04-29T06:17:00.442Z,99765.66
2023-04-29T06:22:04.320Z,99764.75
2023-04-29T06:27:08.307Z,99750.19
2023-04-29T06:32:11.436Z,99737.41
2023-04-29T06:37:14.682Z,99754.41
2023-04-29T06:42:35.556Z,99751.16
2023-04-29T06:48:01.526Z,99746.38
2023-04-29T06:53:24.901Z,99712.53
2023-04-29T06:58:28.130Z,99740.03
2023-04-29T07:03:31.833Z,99729.19
2023-04-29T07:08:35.349Z,99733.03
2023-04-29T07:13:38.678Z,99731.78
2023-04-29T07:18:41.974Z,99730.88
2023-04-29T07:23:45.393Z,99729.84
2023-04-29T07:28:50.746Z,99717.06
2023-04-29T07:33:54.217Z,99720.94
2023-04-29T07:38:57.576Z,99721.88
2023-04-29T07:44:00.970Z,99722.22
2023-04-29T07:49:06.152Z,99732.47
2023-04-29T07:54:09.489Z,99740.94
2023-04-29T07:59:13.023Z,99731.88
2023-04-29T08:04:16.536Z,99731.88
2023-04-29T08:09:27.004Z,99740.38
2023-04-29T08:14:30.528Z,99746.31
2023-04-29T08:19:35.234Z,99758.25
2023-04-29T08:24:38.702Z,99747.31
2023-04-29T08:29:45.688Z,99751.06
2023-04-29T08:34:49.223Z,99741.63
2023-04-29T08:39:52.311Z,99738.00
2023-04-29T08:44:55.411Z,99737.56
2023-04-29T08:50:06.314Z,99742.78
2023-04-29T08:55:09.815Z,99738.00
2023-04-29T09:00:13.714Z,99765.25
2023-04-29T09:05:17.141Z,99757.31
2023-04-29T09:10:20.467Z,99738.63
2023-04-29T09:15:23.588Z,99736.22
2023-04-29T09:20:27.851Z,99731.94
2023-04-29T09:25:31.751Z,99708.09
2023-04-29T09:30:46.748Z,99739.59
2023-04-29T09:35:49.652Z,99754.41
2023-04-29T09:40:59.581Z,99761.31
2023-04-29T09:46:04.455Z,99746.84
2023-04-29T09:51:07.527Z,99734.09
2023-04-29T09:56:10.515Z,99758.03
2023-04-29T10:01:14.807Z,99748.34
2023-04-29T10:06:18.505Z,99751.53
2023-04-29T10:11:22.077Z,99745.63
2023-04-29T10:16:33.375Z,99754.28
2023-04-29T10:21:36.835Z,99751.66
2023-04-29T10:26:40.064Z,99745.53
2023-04-29T10:31:44.293Z,99748.88
2023-04-29T10:36:47.867Z,99743.63
2023-04-29T10:41:51.811Z,99745.44
2023-04-29T10:47:21.660Z,99740.34
2023-04-29T10:52:24.667Z,99751.47
2023-04-29T10:57:27.595Z,99743.63
2023-04-29T11:02:30.619Z,99740.09
2023-04-29T11:07:33.676Z,99750.47
2023-04-29T11:12:36.812Z,99743.50
2023-04-29T11:17:39.915Z,99725.50
2023-04-29T11:22:43.507Z,99735.81
2023-04-29T11:27:48.897Z,99734.75
2023-04-29T11:32:52.546Z,99740.50
2023-04-29T11:37:55.726Z,99756.44
2023-04-29T11:42:58.951Z,99746.91
2023-04-29T11:48:02.572Z,99762.06
2023-04-29T11:53:06.454Z,99753.34
2023-04-29T11:58:09.322Z,99748.69
2023-04-29T12:03:17.574Z,99754.09
2023-04-29T12:08:25.121Z,99750.97
2023-04-29T12:13:31.551Z,99745.97
2023-04-29T12:18:35.213Z,99763.22
2023-04-29T12:23:38.070Z,99755.31
2023-04-29T12:28:43.681Z,99755.47
2023-04-29T12:33:46.572Z,99761.63
2023-04-29T12:38:50.110Z,99769.41
2023-04-29T12:43:53.086Z,99772.25
2023-04-29T12:48:56.011Z,99771.66
2023-04-29T12:54:02.307Z,99767.06
2023-04-29T12:59:12.642Z,99784.19
2023-04-29T13:04:15.522Z,99768.41
2023-04-29T13:09:19.143Z,99772.56
2023-04-29T13:14:22.798Z,99769.38
2023-04-29T13:19:41.162Z,99763.06
2023-04-29T13:24:48.387Z,99759.94
2023-04-29T13:29:51.629Z,99766.09
2023-04-29T13:34:55.193Z,99766.03
2023-04-29T13:39:58.239Z,99777.03
2023-04-29T13:45:01.599Z,99765.59
2023-04-29T14:00:47.151Z,99777.56
2023-04-29T14:05:42.776Z,99778.13
2023-04-29T14:10:45.954Z,99787.47
2023-04-29T14:15:48.906Z,99788.13
2023-04-29T14:20:52.044Z,99790.81
2023-04-29T14:25:58.840Z,99791.09
2023-04-29T14:31:09.625Z,99785.47
2023-04-29T14:36:12.685Z,99795.25
2023-04-29T14:41:15.649Z,99781.06
2023-04-29T14:46:18.589Z,99793.25
2023-04-29T14:51:21.689Z,99793.78
2023-04-29T14:56:24.425Z,99778.44
2023-04-29T15:01:29.848Z,99788.63
2023-04-29T15:06:34.202Z,99780.78
2023-04-29T15:11:37.200Z,99795.09
2023-04-29T15:16:39.987Z,99789.97
2023-04-29T15:21:42.981Z,99780.00
2023-04-29T15:26:46.942Z,99788.81
2023-04-29T15:31:49.863Z,99791.34
2023-04-29T15:36:52.898Z,99791.25
2023-04-29T15:41:55.918Z,99789.41
2023-04-29T15:46:58.743Z,99788.94
2023-04-29T15:52:01.816Z,99791.94
2023-04-29T15:57:04.856Z,99794.44
2023-04-29T16:02:12.070Z,99789.16
2023-04-29T16:07:15.094Z,99785.44
2023-04-29T16:12:17.936Z,99792.19
2023-04-29T16:17:20.904Z,99794.44
2023-04-29T16:22:23.712Z,99791.66
2023-04-29T16:27:30.321Z,99780.91
2023-04-29T16:32:33.569Z,99787.31
2023-04-29T16:37:36.769Z,99786.91
2023-04-29T16:42:39.533Z,99797.31
2023-04-29T16:47:42.935Z,99794.16
2023-04-29T16:52:45.826Z,99796.38
2023-04-29T16:57:48.557Z,99803.66
2023-04-29T17:02:51.667Z,99794.38
2023-04-29T17:07:55.303Z,99806.88
2023-04-29T17:12:58.166Z,99808.56
2023-04-29T17:18:01.051Z,99810.91
2023-04-29T17:23:04.018Z,99813.81
2023-04-29T17:28:07.313Z,99812.00
2023-04-29T17:33:10.207Z,99820.72
2023-04-29T17:38:13.099Z,99820.53
2023-04-29T17:43:15.875Z,99820.38
2023-04-29T17:48:19.754Z,99825.88
2023-04-29T17:53:22.609Z,99828.63
2023-04-29T17:58:25.459Z,99841.22
2023-04-29T18:03:30.615Z,99837.44
2023-04-29T18:08:33.260Z,99845.84
2023-04-29T18:13:36.437Z,99846.97
2023-04-29T18:18:39.328Z,99852.47
2023-04-29T18:23:42.245Z,99847.50
2023-04-29T18:28:46.661Z,99851.78
2023-04-29T18:33:49.387Z,99844.94
2023-04-29T18:38:52.514Z,99845.13
2023-04-29T18:43:55.317Z,99846.72
2023-04-29T18:48:58.100Z,99847.69
2023-04-29T18:54:00.945Z,99848.28
2023-04-29T18:59:04.342Z,99834.44
2023-04-29T19:04:09.898Z,99841.44
2023-04-29T19:09:13.912Z,99838.22
2023-04-29T19:14:16.824Z,99851.31
2023-04-29T19:19:19.623Z,99855.91
2023-04-29T19:24:22.386Z,99847.59
2023-04-29T19:29:25.153Z,99843.50
2023-04-29T19:34:28.023Z,99837.88
2023-04-29T19:39:31.102Z,99845.34
2023-04-29T19:44:33.924Z,99840.38
2023-04-29T19:49:37.642Z,99846.63
2023-04-29T19:54:41.255Z,99842.34
2023-04-29T19:59:44.071Z,99833.91
2023-04-29T20:04:46.861Z,99834.44
2023-04-29T20:09:50.051Z,99843.72
2023-04-29T20:14:52.899Z,99844.31
2023-04-29T20:19:55.984Z,99835.84
2023-04-29T20:24:58.910Z,99834.31
2023-04-29T20:30:01.983Z,99832.13
2023-04-29T20:35:06.800Z,99841.28
2023-04-29T20:40:10.297Z,99840.63
2023-04-29T20:45:13.569Z,99832.66
2023-04-29T20:50:16.522Z,99836.03
2023-04-29T20:55:19.343Z,99833.03
2023-04-29T21:00:23.436Z,99829.66
2023-04-29T21:05:26.562Z,99831.28
2023-04-29T21:10:29.352Z,99834.94
2023-04-29T21:15:32.186Z,99835.56
2023-04-29T21:20:36.302Z,99833.41
2023-04-29T21:25:39.063Z,99825.22
2023-04-29T21:30:41.918Z,99839.63
2023-04-29T21:35:48.997Z,99835.25
2023-04-29T21:40:53.881Z,99831.78
2023-04-29T21:45:56.662Z,99834.69
2023-04-29T21:51:00.353Z,99829.66
2023-04-29T21:56:03.073Z,99833.13
2023-04-29T22:01:25.899Z,99839.69
2023-04-29T22:06:28.893Z,99844.22
2023-04-29T22:11:31.904Z,99838.53
2023-04-29T22:16:36.250Z,99833.41
2023-04-29T22:21:41.122Z,99837.50
2023-04-29T22:26:43.714Z,99847.44
2023-04-29T22:31:46.559Z,99843.59
2023-04-29T22:36:49.357Z,99839.84
2023-04-29T22:41:52.203Z,99841.31
2023-04-29T22:46:55.203Z,99834.94
2023-04-29T22:51:58.101Z,99838.25
2023-04-29T22:57:00.842Z,99843.25
2023-04-29T23:02:03.799Z,99841.91
2023-04-29T23:07:06.852Z,99841.50
2023-04-29T23:12:09.550Z,99834.28
2023-04-29T23:17:12.796Z,99833.81
2023-04-29T23:22:17.339Z,99843.66
2023-04-29T23:27:20.139Z,99842.47
2023-04-29T23:32:24.713Z,99847.41
2023-04-29T23:37:27.629Z,99851.75
2023-04-29T23:42:30.873Z,99841.16
2023-04-29T23:47:33.736Z,99846.03
2023-04-29T23:52:36.552Z,99852.09
2023-04-29T23:57:39.307Z,99867.06
